Terminal Aerodrome Forecast
Issued by NWS

Home | Current Version | Previous Version | Text Only | Print | Product List | Glossary On
Versions: 1 2 3 4 5 6 7 8 9 10 11 12 13 14 15 16 17 18 19 20 21 22 23 24 25 26 27 28 29 30 31 32 33 34 35 36 37 38 39 40
000
FTUS45 KGJT 260732 AAA
TAFMTJ
TAF AMD
KMTJ 260732Z 2608/2706 24009KT P6SM VCSH BKN035 BKN040 OVC050
      TEMPO 2608/2610 -SHRA OVC030
     FM261000 19006KT P6SM VCSH BKN045
     FM261500 VRB03KT P6SM VCSH BKN040
     FM262000 31004KT P6SM SCT100
     FM270400 18007KT P6SM SCT200=

USA.gov is the U.S. government's official web portal to all federal, state and local government web resources and services.